TimeMDT,TemperatureF,Dew PointF,Humidity,Sea Level PressureIn,VisibilityMPH,Wind Direction,Wind SpeedMPH,Gust SpeedMPH,PrecipitationIn,Events,Conditions,WindDirDegrees,DateUTC
12:53 AM,41.0,36.0,82,29.77,10.0,WNW,9.2,-,N/A,,Clear,290,2014-03-10 06:53:00
1:53 AM,41.0,36.0,82,29.78,10.0,WNW,9.2,-,N/A,,Clear,300,2014-03-10 07:53:00
2:53 AM,36.0,33.1,89,29.79,10.0,NNW,5.8,-,N/A,,Clear,330,2014-03-10 08:53:00
3:53 AM,35.1,33.1,92,29.79,10.0,NNW,8.1,-,N/A,,Clear,340,2014-03-10 09:53:00
4:53 AM,35.1,33.1,92,29.79,10.0,West,5.8,-,N/A,,Clear,280,2014-03-10 10:53:00
5:53 AM,34.0,32.0,92,29.80,10.0,WNW,8.1,-,N/A,,Clear,300,2014-03-10 11:53:00
6:53 AM,33.1,32.0,96,29.82,10.0,WSW,5.8,-,N/A,,Clear,240,2014-03-10 12:53:00
7:53 AM,35.1,32.0,89,29.82,10.0,WNW,5.8,-,N/A,,Partly Cloudy,290,2014-03-10 13:53:00
8:53 AM,36.0,32.0,86,29.82,10.0,Calm,Calm,-,N/A,,Overcast,0,2014-03-10 14:53:00
9:53 AM,37.9,34.0,86,29.84,10.0,Calm,Calm,-,N/A,,Overcast,0,2014-03-10 15:53:00
10:53 AM,39.9,33.1,77,29.84,10.0,NW,4.6,-,N/A,,Scattered Clouds,310,2014-03-10 16:53:00
11:53 AM,39.9,34.0,79,29.85,10.0,NW,3.5,-,N/A,,Overcast,310,2014-03-10 17:53:00
12:53 PM,41.0,34.0,76,29.84,10.0,NW,4.6,-,N/A,,Overcast,320,2014-03-10 18:53:00
1:53 PM,43.0,34.0,71,29.82,10.0,NW,3.5,-,N/A,,Overcast,320,2014-03-10 19:53:00
2:53 PM,43.0,35.1,74,29.81,10.0,NW,3.5,-,N/A,,Overcast,320,2014-03-10 20:53:00
3:53 PM,43.0,36.0,76,29.81,10.0,NNW,4.6,-,N/A,,Mostly Cloudy,330,2014-03-10 21:53:00
4:53 PM,45.0,32.0,60,29.83,10.0,North,5.8,-,N/A,,Mostly Cloudy,10,2014-03-10 22:53:00
5:53 PM,42.1,33.1,70,29.84,10.0,North,6.9,-,N/A,,Scattered Clouds,10,2014-03-10 23:53:00
6:53 PM,39.9,30.9,70,29.86,10.0,North,8.1,-,N/A,,Clear,10,2014-03-11 00:53:00
7:53 PM,36.0,28.9,76,29.89,10.0,NNE,8.1,-,N/A,,Partly Cloudy,20,2014-03-11 01:53:00
8:53 PM,36.0,28.9,76,29.92,10.0,NNE,10.4,-,N/A,,Partly Cloudy,20,2014-03-11 02:53:00
9:53 PM,35.1,28.9,78,29.94,10.0,NNE,9.2,-,N/A,,Mostly Cloudy,20,2014-03-11 03:53:00
10:53 PM,33.1,28.9,85,29.97,10.0,WNW,8.1,-,N/A,,Overcast,300,2014-03-11 04:53:00
11:53 PM,33.1,28.0,82,30.00,10.0,NNW,8.1,-,N/A,,Partly Cloudy,330,2014-03-11 05:53:00